Time;durP1;ratioP1;P1;durP2;ratioP2;P2;SDS_P1;SDS_P2;PMS_P1;PMS_P2;Temp;Humidity;BMP_temperature;BMP_pressure;BME280_temperature;BME280_humidity;BME280_pressure;Samples;Min_cycle;Max_cycle;Signal;HPM_P1;HPM_P2
2023/03/09 00:00:47;;;;;;;2.42;0.70;;;;;;;;;;5002695;28;20068;-74
2023/03/09 00:03:15;;;;;;;3.47;1.55;;;;;;;;;;5006691;28;20109;-75
2023/03/09 00:05:42;;;;;;;4.88;1.50;;;;;;;;;;5001894;28;20146;-74
2023/03/09 00:08:08;;;;;;;4.05;1.75;;;;;;;;;;5018056;28;20069;-74
2023/03/09 00:10:34;;;;;;;6.35;2.30;;;;;;;;;;5008615;28;20112;-75
2023/03/09 00:13:00;;;;;;;5.20;1.70;;;;;;;;;;5001679;28;20037;-75
2023/03/09 00:15:26;;;;;;;7.32;2.55;;;;;;;;;;5016181;28;20143;-74
2023/03/09 00:17:52;;;;;;;9.95;4.50;;;;;;;;;;5004889;28;20751;-74
2023/03/09 00:20:18;;;;;;;5.00;2.33;;;;;;;;;;4994367;28;20065;-75
2023/03/09 00:22:48;;;;;;;7.10;3.15;;;;;;;;;;5016809;28;20570;-74
2023/03/09 00:25:14;;;;;;;4.57;2.70;;;;;;;;;;5013557;28;20037;-74
2023/03/09 00:27:41;;;;;;;2.92;0.93;;;;;;;;;;5027512;28;20042;-74
2023/03/09 00:30:08;;;;;;;2.00;0.88;;;;;;;;;;5024325;28;20149;-75
2023/03/09 00:32:34;;;;;;;2.38;0.65;;;;;;;;;;5014425;28;20418;-75
2023/03/09 00:35:00;;;;;;;1.63;0.60;;;;;;;;;;5022616;28;20033;-75
2023/03/09 00:37:26;;;;;;;5.80;1.77;;;;;;;;;;5023426;28;20352;-75
2023/03/09 00:39:52;;;;;;;3.00;1.50;;;;;;;;;;5022262;28;20040;-74
2023/03/09 00:42:18;;;;;;;4.97;1.55;;;;;;;;;;5023137;28;20041;-74
2023/03/09 00:44:46;;;;;;;6.07;1.52;;;;;;;;;;5038168;28;20433;-74
2023/03/09 00:47:12;;;;;;;4.20;1.70;;;;;;;;;;5023696;28;20172;-75
2023/03/09 00:49:38;;;;;;;11.90;6.78;;;;;;;;;;5032925;28;20688;-74
2023/03/09 00:52:04;;;;;;;6.60;2.58;;;;;;;;;;5031679;28;20139;-74
2023/03/09 00:54:30;;;;;;;8.88;4.25;;;;;;;;;;5022874;28;20060;-75
2023/03/09 00:56:56;;;;;;;4.97;1.80;;;;;;;;;;5038723;28;20131;-74
2023/03/09 00:59:22;;;;;;;4.93;1.60;;;;;;;;;;5032399;28;20036;-74
2023/03/09 01:01:48;;;;;;;6.22;2.15;;;;;;;;;;5033295;28;20044;-74
2023/03/09 01:04:14;;;;;;;3.67;1.35;;;;;;;;;;5021518;28;20033;-74
2023/03/09 01:06:40;;;;;;;2.70;0.70;;;;;;;;;;5023597;28;20030;-74
2023/03/09 01:09:06;;;;;;;2.33;0.90;;;;;;;;;;5029226;28;20034;-74
2023/03/09 01:11:32;;;;;;;5.80;2.58;;;;;;;;;;5021411;28;20506;-74
2023/03/09 01:13:58;;;;;;;3.28;1.13;;;;;;;;;;5027368;28;20140;-74
2023/03/09 01:16:24;;;;;;;7.68;2.92;;;;;;;;;;5018115;28;20073;-75
2023/03/09 01:18:50;;;;;;;6.07;2.33;;;;;;;;;;5012139;28;20376;-75
2023/03/09 01:21:16;;;;;;;5.90;2.15;;;;;;;;;;5021746;28;21161;-74
2023/03/09 01:23:42;;;;;;;5.55;2.10;;;;;;;;;;5021647;28;20049;-74
2023/03/09 01:26:08;;;;;;;8.00;2.72;;;;;;;;;;5007671;28;20061;-74
2023/03/09 01:28:34;;;;;;;4.93;2.05;;;;;;;;;;5003295;28;20037;-74
2023/03/09 01:31:01;;;;;;;3.53;1.40;;;;;;;;;;5000559;28;20041;-74
2023/03/09 01:33:27;;;;;;;7.68;2.88;;;;;;;;;;5008982;28;20640;-74
2023/03/09 01:35:53;;;;;;;9.63;4.78;;;;;;;;;;5008818;28;20065;-74
2023/03/09 01:38:19;;;;;;;7.93;1.83;;;;;;;;;;5008059;28;20045;-74
2023/03/09 01:40:46;;;;;;;3.78;1.00;;;;;;;;;;5008460;28;20030;-75
2023/03/09 01:43:24;;;;;;;4.47;1.05;;;;;;;;;;4992390;28;20034;-74
2023/03/09 01:45:50;;;;;;;2.88;1.08;;;;;;;;;;5000050;28;20046;-74
2023/03/09 01:48:17;;;;;;;3.30;0.50;;;;;;;;;;5008023;28;20045;-74
2023/03/09 01:50:43;;;;;;;2.97;1.00;;;;;;;;;;5003580;28;20022;-75
2023/03/09 01:53:12;;;;;;;6.15;1.27;;;;;;;;;;5009884;28;20034;-74
2023/03/09 01:55:42;;;;;;;6.45;2.03;;;;;;;;;;5007416;28;20033;-74
2023/03/09 01:58:11;;;;;;;12.10;5.13;;;;;;;;;;4999545;28;20035;-74
2023/03/09 02:00:39;;;;;;;4.70;1.52;;;;;;;;;;4982221;28;20034;-74
2023/03/09 02:03:12;;;;;;;3.92;0.90;;;;;;;;;;5001306;28;20484;-74
2023/03/09 02:05:38;;;;;;;6.75;2.10;;;;;;;;;;5007950;28;20049;-75
2023/03/09 02:08:04;;;;;;;10.18;6.22;;;;;;;;;;5010456;28;20095;-74
2023/03/09 02:10:33;;;;;;;9.35;3.60;;;;;;;;;;5009965;28;20586;-74
2023/03/09 02:13:02;;;;;;;7.03;3.30;;;;;;;;;;5005243;28;20042;-75
2023/03/09 02:15:28;;;;;;;6.45;2.17;;;;;;;;;;5008258;28;20840;-74
2023/03/09 02:17:54;;;;;;;6.28;1.70;;;;;;;;;;5014772;28;20033;-74
2023/03/09 02:20:24;;;;;;;3.90;1.40;;;;;;;;;;5015778;28;20025;-74
2023/03/09 02:22:51;;;;;;;5.90;1.80;;;;;;;;;;5016870;28;20045;-75
2023/03/09 02:25:17;;;;;;;6.18;1.65;;;;;;;;;;5025267;28;20041;-74
2023/03/09 02:27:43;;;;;;;4.53;1.80;;;;;;;;;;5025019;28;20034;-74
2023/03/09 02:30:10;;;;;;;6.30;1.55;;;;;;;;;;5032247;28;20033;-74
2023/03/09 02:32:36;;;;;;;7.07;1.67;;;;;;;;;;5032659;28;20044;-74
2023/03/09 02:35:03;;;;;;;4.72;1.58;;;;;;;;;;5041959;28;20025;-74
2023/03/09 02:37:35;;;;;;;5.50;1.58;;;;;;;;;;5031619;28;20033;-74
2023/03/09 02:40:05;;;;;;;4.95;1.17;;;;;;;;;;5027520;28;20035;-74
2023/03/09 02:42:31;;;;;;;3.17;1.23;;;;;;;;;;5026523;28;20144;-75
2023/03/09 02:44:59;;;;;;;4.38;1.23;;;;;;;;;;5019187;28;20125;-74
2023/03/09 02:47:25;;;;;;;3.88;1.20;;;;;;;;;;5017152;28;20029;-74
2023/03/09 02:49:51;;;;;;;5.15;1.27;;;;;;;;;;5026716;28;20383;-74
2023/03/09 02:52:17;;;;;;;7.03;1.05;;;;;;;;;;5032941;28;20033;-74
2023/03/09 02:54:43;;;;;;;5.13;1.23;;;;;;;;;;5030780;28;20112;-74
2023/03/09 02:57:09;;;;;;;3.95;0.90;;;;;;;;;;5025400;28;20621;-74
2023/03/09 02:59:35;;;;;;;7.25;1.63;;;;;;;;;;5032943;28;20054;-74
2023/03/09 03:02:01;;;;;;;2.72;0.90;;;;;;;;;;5027743;28;20115;-74
2023/03/09 03:04:27;;;;;;;4.82;0.98;;;;;;;;;;5022211;28;20127;-75
2023/03/09 03:06:53;;;;;;;3.33;0.77;;;;;;;;;;5032545;28;20438;-75
2023/03/09 03:09:19;;;;;;;3.03;1.00;;;;;;;;;;5014923;28;20029;-75
2023/03/09 03:11:45;;;;;;;4.82;1.00;;;;;;;;;;5026021;28;20033;-75
2023/03/09 03:14:11;;;;;;;5.97;1.55;;;;;;;;;;5026101;28;20068;-75
2023/03/09 03:16:37;;;;;;;5.55;1.40;;;;;;;;;;5023053;28;20022;-74
2023/03/09 03:19:03;;;;;;;4.25;0.90;;;;;;;;;;5029634;28;20041;-75
2023/03/09 03:21:29;;;;;;;5.22;0.80;;;;;;;;;;5019318;28;20049;-74
2023/03/09 03:23:55;;;;;;;2.17;0.77;;;;;;;;;;5029821;28;20033;-75
2023/03/09 03:26:21;;;;;;;3.92;1.00;;;;;;;;;;5027939;28;20032;-74
2023/03/09 03:28:47;;;;;;;3.33;0.90;;;;;;;;;;5024236;28;20030;-75
2023/03/09 03:31:13;;;;;;;6.85;1.25;;;;;;;;;;5036965;28;20140;-75
2023/03/09 03:33:39;;;;;;;4.03;0.90;;;;;;;;;;5023254;28;22210;-75
2023/03/09 03:36:05;;;;;;;4.10;0.90;;;;;;;;;;5022667;28;20120;-74
2023/03/09 03:38:31;;;;;;;3.58;0.90;;;;;;;;;;5022586;28;20041;-74
2023/03/09 03:40:57;;;;;;;5.82;0.95;;;;;;;;;;5026832;28;20037;-75
2023/03/09 03:43:23;;;;;;;3.63;0.95;;;;;;;;;;5029736;28;20029;-74
2023/03/09 03:45:49;;;;;;;5.80;2.08;;;;;;;;;;5018595;28;20045;-74
2023/03/09 03:48:15;;;;;;;5.18;2.85;;;;;;;;;;5030109;28;20029;-75
2023/03/09 03:50:42;;;;;;;6.30;3.05;;;;;;;;;;5040388;28;20052;-74
2023/03/09 03:53:07;;;;;;;8.20;3.78;;;;;;;;;;5032297;28;20059;-74
2023/03/09 03:55:34;;;;;;;8.63;2.67;;;;;;;;;;5013306;28;20472;-75
2023/03/09 03:58:00;;;;;;;7.10;3.00;;;;;;;;;;5016942;28;20057;-74
2023/03/09 04:00:26;;;;;;;7.05;2.55;;;;;;;;;;5021995;28;20056;-74
2023/03/09 04:02:52;;;;;;;5.43;1.92;;;;;;;;;;5023526;28;20037;-74
2023/03/09 04:05:18;;;;;;;6.70;1.85;;;;;;;;;;5020979;28;20467;-74
2023/03/09 04:07:46;;;;;;;3.47;1.10;;;;;;;;;;5029318;28;20056;-75
2023/03/09 04:10:12;;;;;;;9.23;2.10;;;;;;;;;;5033605;28;20025;-74
2023/03/09 04:12:38;;;;;;;5.15;1.50;;;;;;;;;;5030931;28;20037;-74
2023/03/09 04:15:05;;;;;;;4.20;1.50;;;;;;;;;;5033277;28;20034;-74
2023/03/09 04:17:31;;;;;;;7.38;1.75;;;;;;;;;;5031169;28;20033;-74
2023/03/09 04:19:57;;;;;;;6.93;3.65;;;;;;;;;;5028590;28;20038;-75
2023/03/09 04:22:23;;;;;;;10.75;6.30;;;;;;;;;;5031691;28;20053;-74
2023/03/09 04:24:49;;;;;;;11.90;7.55;;;;;;;;;;5024374;28;20061;-74
2023/03/09 04:27:16;;;;;;;13.43;5.43;;;;;;;;;;5027361;28;20030;-75
2023/03/09 04:29:42;;;;;;;9.98;5.45;;;;;;;;;;5020082;28;20753;-75
2023/03/09 04:32:08;;;;;;;10.23;5.15;;;;;;;;;;5042685;28;20033;-74
2023/03/09 04:34:34;;;;;;;13.40;7.63;;;;;;;;;;5028266;28;20021;-75
2023/03/09 04:37:00;;;;;;;11.23;6.65;;;;;;;;;;5033072;28;20112;-74
2023/03/09 04:39:26;;;;;;;15.05;8.02;;;;;;;;;;5034782;28;20040;-74
2023/03/09 04:41:52;;;;;;;15.20;9.55;;;;;;;;;;5032629;28;20123;-74
2023/03/09 04:44:18;;;;;;;19.88;9.80;;;;;;;;;;5017906;28;20033;-74
2023/03/09 04:46:44;;;;;;;12.52;6.80;;;;;;;;;;5027782;28;20057;-75
2023/03/09 04:49:10;;;;;;;14.32;6.97;;;;;;;;;;5028625;28;20033;-74
2023/03/09 04:51:36;;;;;;;6.57;2.20;;;;;;;;;;5028906;28;20036;-75
2023/03/09 04:54:02;;;;;;;16.58;10.00;;;;;;;;;;5032514;28;20038;-74
2023/03/09 04:56:28;;;;;;;6.85;3.75;;;;;;;;;;5031240;28;20038;-75
2023/03/09 04:58:55;;;;;;;6.80;1.70;;;;;;;;;;5020333;28;20037;-75
2023/03/09 05:01:21;;;;;;;11.05;4.05;;;;;;;;;;5022210;28;20163;-74
2023/03/09 05:03:47;;;;;;;6.10;1.85;;;;;;;;;;5027936;28;20041;-74
2023/03/09 05:06:13;;;;;;;5.78;1.55;;;;;;;;;;5029464;28;20835;-75
2023/03/09 05:08:39;;;;;;;6.93;2.00;;;;;;;;;;5027461;28;20033;-74
2023/03/09 05:11:05;;;;;;;7.53;3.28;;;;;;;;;;5028910;28;20041;-74
2023/03/09 05:13:31;;;;;;;10.07;3.40;;;;;;;;;;5019467;28;20029;-74
2023/03/09 05:15:57;;;;;;;7.95;1.80;;;;;;;;;;5037012;28;20673;-74
2023/03/09 05:18:23;;;;;;;7.28;1.80;;;;;;;;;;5015997;28;20040;-75
2023/03/09 05:20:49;;;;;;;8.98;2.33;;;;;;;;;;5017679;28;20034;-74
2023/03/09 05:23:15;;;;;;;6.05;2.22;;;;;;;;;;5018221;28;20051;-74
2023/03/09 05:25:41;;;;;;;8.00;2.58;;;;;;;;;;5031521;28;20602;-75
2023/03/09 05:28:07;;;;;;;7.43;2.58;;;;;;;;;;5023412;28;20026;-75
2023/03/09 05:30:33;;;;;;;8.02;3.25;;;;;;;;;;5018297;28;20034;-75
2023/03/09 05:32:59;;;;;;;6.20;2.85;;;;;;;;;;5034561;28;20044;-75
2023/03/09 05:35:25;;;;;;;12.02;3.70;;;;;;;;;;5027770;28;20033;-75
2023/03/09 05:37:51;;;;;;;192.25;108.78;;;;;;;;;;5027646;28;20109;-75
2023/03/09 05:40:21;;;;;;;93.53;52.15;;;;;;;;;;5024128;28;20451;-74
2023/03/09 05:42:47;;;;;;;53.47;29.50;;;;;;;;;;5034765;28;20120;-74
2023/03/09 05:45:13;;;;;;;39.40;21.27;;;;;;;;;;5022993;28;20038;-74
2023/03/09 05:47:40;;;;;;;19.52;9.73;;;;;;;;;;5037817;28;20692;-75
2023/03/09 05:50:06;;;;;;;27.05;16.95;;;;;;;;;;5027827;28;20029;-75
2023/03/09 05:52:32;;;;;;;15.55;8.80;;;;;;;;;;5018177;28;20025;-74
2023/03/09 05:54:58;;;;;;;18.85;5.18;;;;;;;;;;5018834;28;20044;-74
2023/03/09 05:57:24;;;;;;;8.50;3.10;;;;;;;;;;5027693;28;20029;-75
2023/03/09 05:59:50;;;;;;;8.27;3.83;;;;;;;;;;5035291;28;20048;-74
2023/03/09 06:02:16;;;;;;;6.55;1.75;;;;;;;;;;5029802;28;20083;-74
2023/03/09 06:04:42;;;;;;;8.27;2.67;;;;;;;;;;5037303;28;20021;-74
2023/03/09 06:07:08;;;;;;;7.85;2.00;;;;;;;;;;5030970;28;20344;-74
2023/03/09 06:09:34;;;;;;;7.63;1.88;;;;;;;;;;5028573;28;20032;-74
2023/03/09 06:12:00;;;;;;;10.40;4.45;;;;;;;;;;5029146;28;20036;-75
2023/03/09 06:14:26;;;;;;;15.52;7.70;;;;;;;;;;5029925;28;20030;-75
2023/03/09 06:16:52;;;;;;;17.88;7.15;;;;;;;;;;5033643;28;20084;-74
2023/03/09 06:19:18;;;;;;;19.25;8.68;;;;;;;;;;5032688;28;20033;-75
2023/03/09 06:21:44;;;;;;;22.73;10.18;;;;;;;;;;5030948;28;20041;-75
2023/03/09 06:24:10;;;;;;;22.63;10.10;;;;;;;;;;5026341;28;20506;-75
2023/03/09 06:26:36;;;;;;;22.92;10.75;;;;;;;;;;5030793;28;20025;-74
2023/03/09 06:29:03;;;;;;;27.05;12.95;;;;;;;;;;5023185;28;20036;-74
2023/03/09 06:31:31;;;;;;;16.67;7.72;;;;;;;;;;5025238;28;20113;-74
2023/03/09 06:33:58;;;;;;;8.30;2.95;;;;;;;;;;5033568;28;20037;-74
2023/03/09 06:36:24;;;;;;;9.65;2.70;;;;;;;;;;5026463;28;20029;-75
2023/03/09 06:38:49;;;;;;;9.73;3.05;;;;;;;;;;5022500;28;20042;-74
2023/03/09 06:41:16;;;;;;;8.75;3.17;;;;;;;;;;5029870;28;20950;-75
2023/03/09 06:43:45;;;;;;;11.30;4.20;;;;;;;;;;5026963;28;20052;-74
2023/03/09 06:46:11;;;;;;;12.98;4.72;;;;;;;;;;5031329;28;20030;-75
2023/03/09 06:48:38;;;;;;;14.32;4.35;;;;;;;;;;5016870;28;20112;-74
2023/03/09 06:51:04;;;;;;;13.70;4.70;;;;;;;;;;5030300;28;20061;-75
2023/03/09 06:53:30;;;;;;;15.35;4.70;;;;;;;;;;5015293;28;20461;-74
2023/03/09 06:55:59;;;;;;;9.18;2.45;;;;;;;;;;5021867;28;20045;-75
2023/03/09 06:58:25;;;;;;;9.63;3.25;;;;;;;;;;5028081;28;20081;-74
2023/03/09 07:00:51;;;;;;;12.30;3.40;;;;;;;;;;5039385;28;20058;-74
2023/03/09 07:03:18;;;;;;;11.77;4.10;;;;;;;;;;5026724;28;20479;-74
2023/03/09 07:05:44;;;;;;;11.05;3.83;;;;;;;;;;5028403;28;20037;-74
2023/03/09 07:08:10;;;;;;;12.80;4.82;;;;;;;;;;5031753;28;20633;-74
2023/03/09 07:10:36;;;;;;;12.05;5.90;;;;;;;;;;5029457;28;20055;-74
2023/03/09 07:13:03;;;;;;;15.25;5.30;;;;;;;;;;5029237;28;20072;-74
2023/03/09 07:15:29;;;;;;;13.63;5.45;;;;;;;;;;5031367;28;20017;-74
2023/03/09 07:17:55;;;;;;;18.10;4.18;;;;;;;;;;5037683;28;20040;-75
2023/03/09 07:20:23;;;;;;;17.17;5.18;;;;;;;;;;5034283;28;20030;-74
2023/03/09 07:22:49;;;;;;;11.70;4.03;;;;;;;;;;5033305;28;20057;-75
2023/03/09 07:25:16;;;;;;;10.63;4.05;;;;;;;;;;5026857;28;20029;-75
2023/03/09 07:27:42;;;;;;;10.63;4.80;;;;;;;;;;5028224;28;20057;-75
2023/03/09 07:30:09;;;;;;;16.55;7.22;;;;;;;;;;5028749;28;20064;-74
2023/03/09 07:32:35;;;;;;;14.10;5.88;;;;;;;;;;5030545;28;20041;-75
2023/03/09 07:35:01;;;;;;;17.27;4.95;;;;;;;;;;5031337;28;20025;-75
2023/03/09 07:37:27;;;;;;;11.95;4.72;;;;;;;;;;5026537;28;20045;-74
2023/03/09 07:39:53;;;;;;;19.65;5.70;;;;;;;;;;5035848;28;20033;-75
2023/03/09 07:42:19;;;;;;;14.00;5.07;;;;;;;;;;5018059;28;20079;-74
2023/03/09 07:44:45;;;;;;;12.00;4.43;;;;;;;;;;5032005;28;20013;-74
2023/03/09 07:47:11;;;;;;;11.10;4.10;;;;;;;;;;5028171;28;20063;-74
2023/03/09 07:49:37;;;;;;;11.90;3.95;;;;;;;;;;5029607;28;20028;-74
2023/03/09 07:52:03;;;;;;;9.95;3.63;;;;;;;;;;5025489;28;20125;-74
2023/03/09 07:54:29;;;;;;;10.88;2.83;;;;;;;;;;5035550;28;20698;-75
2023/03/09 07:56:55;;;;;;;8.43;2.10;;;;;;;;;;5027600;28;20041;-75
2023/03/09 07:59:21;;;;;;;12.63;3.05;;;;;;;;;;5021733;28;20041;-74
2023/03/09 08:01:47;;;;;;;5.70;1.58;;;;;;;;;;5026784;28;20033;-74
2023/03/09 08:04:15;;;;;;;9.45;2.42;;;;;;;;;;5023751;28;20029;-74
2023/03/09 08:06:41;;;;;;;4.70;1.85;;;;;;;;;;5027105;28;20152;-75
2023/03/09 08:09:12;;;;;;;8.50;2.97;;;;;;;;;;5022624;28;20057;-74
2023/03/09 08:11:38;;;;;;;8.80;2.80;;;;;;;;;;5025777;28;20403;-74
2023/03/09 08:14:04;;;;;;;10.63;2.70;;;;;;;;;;5037890;28;20048;-75
2023/03/09 08:16:30;;;;;;;9.02;3.17;;;;;;;;;;5034312;28;20112;-74
2023/03/09 08:18:56;;;;;;;12.20;3.67;;;;;;;;;;5030808;28;20486;-75
2023/03/09 08:21:22;;;;;;;8.63;2.90;;;;;;;;;;5026656;28;20495;-74
2023/03/09 08:23:48;;;;;;;6.07;1.70;;;;;;;;;;5031182;28;20040;-74
2023/03/09 08:26:15;;;;;;;8.18;2.75;;;;;;;;;;5030077;28;20037;-74
2023/03/09 08:28:42;;;;;;;9.27;1.92;;;;;;;;;;5024863;28;20036;-74
2023/03/09 08:31:16;;;;;;;6.35;1.50;;;;;;;;;;5024539;28;20036;-75
2023/03/09 08:33:42;;;;;;;12.60;5.13;;;;;;;;;;5027006;28;20395;-75
2023/03/09 08:36:12;;;;;;;8.73;2.03;;;;;;;;;;5025994;28;20475;-74
2023/03/09 08:38:38;;;;;;;7.90;2.25;;;;;;;;;;5035210;28;20040;-75
2023/03/09 08:41:04;;;;;;;7.28;2.08;;;;;;;;;;5031088;28;20045;-75
2023/03/09 08:43:30;;;;;;;9.02;2.00;;;;;;;;;;5027392;28;20891;-74
2023/03/09 08:45:57;;;;;;;7.28;1.98;;;;;;;;;;5029322;28;20132;-74
2023/03/09 08:48:23;;;;;;;9.85;1.48;;;;;;;;;;5028811;28;20057;-74
2023/03/09 08:50:49;;;;;;;4.50;1.20;;;;;;;;;;5027144;28;20107;-75
2023/03/09 08:53:15;;;;;;;5.30;1.10;;;;;;;;;;5022426;28;20499;-74
2023/03/09 08:55:41;;;;;;;5.47;1.15;;;;;;;;;;5025455;28;20029;-75
2023/03/09 08:58:07;;;;;;;5.88;1.08;;;;;;;;;;5024934;28;20034;-74
2023/03/09 09:00:33;;;;;;;6.93;1.42;;;;;;;;;;5022920;28;20030;-75
2023/03/09 09:02:59;;;;;;;6.60;2.08;;;;;;;;;;5025500;28;20398;-74
2023/03/09 09:05:25;;;;;;;8.75;1.75;;;;;;;;;;5030229;28;20021;-75
2023/03/09 09:07:51;;;;;;;9.05;1.92;;;;;;;;;;5030361;28;20487;-74
2023/03/09 09:10:17;;;;;;;8.70;2.03;;;;;;;;;;5026904;28;20029;-74
2023/03/09 09:12:43;;;;;;;7.93;1.88;;;;;;;;;;5034947;28;20033;-74
2023/03/09 09:15:10;;;;;;;10.43;2.03;;;;;;;;;;5031265;28;20459;-74
2023/03/09 09:17:36;;;;;;;9.60;2.13;;;;;;;;;;5026005;28;20033;-74
2023/03/09 09:20:04;;;;;;;11.57;2.22;;;;;;;;;;5026873;28;20797;-74
2023/03/09 09:22:30;;;;;;;6.78;1.95;;;;;;;;;;5036747;28;20060;-74
2023/03/09 09:24:56;;;;;;;8.90;2.50;;;;;;;;;;5034870;28;20029;-74
2023/03/09 09:27:22;;;;;;;8.15;2.20;;;;;;;;;;5029682;28;20029;-74
2023/03/09 09:29:48;;;;;;;9.35;2.00;;;;;;;;;;5034705;28;20469;-74
2023/03/09 09:32:13;;;;;;;8.40;1.70;;;;;;;;;;5037602;28;20037;-75
2023/03/09 09:34:39;;;;;;;10.02;1.92;;;;;;;;;;5043352;28;20021;-75
2023/03/09 09:37:05;;;;;;;6.82;1.50;;;;;;;;;;5036748;28;20037;-74
2023/03/09 09:39:35;;;;;;;7.80;1.90;;;;;;;;;;5032077;28;20579;-75
2023/03/09 09:42:03;;;;;;;5.38;1.05;;;;;;;;;;5032843;28;20753;-75
2023/03/09 09:44:32;;;;;;;9.50;1.58;;;;;;;;;;5032755;28;20044;-74
2023/03/09 09:47:04;;;;;;;8.65;1.75;;;;;;;;;;5032716;28;20056;-74
2023/03/09 09:49:31;;;;;;;8.33;1.30;;;;;;;;;;5037607;28;20432;-74
2023/03/09 09:52:06;;;;;;;5.95;1.20;;;;;;;;;;5030626;28;20069;-74
2023/03/09 09:54:41;;;;;;;7.85;1.10;;;;;;;;;;5025102;28;20032;-75
2023/03/09 09:57:19;;;;;;;9.50;1.10;;;;;;;;;;5030677;28;20116;-75
2023/03/09 09:59:51;;;;;;;7.00;1.67;;;;;;;;;;5028848;28;20116;-74
2023/03/09 10:02:36;;;;;;;6.67;1.23;;;;;;;;;;5034353;28;20038;-74
2023/03/09 10:05:10;;;;;;;7.53;1.48;;;;;;;;;;5033249;28;20275;-74
2023/03/09 10:07:37;;;;;;;7.72;1.60;;;;;;;;;;5031644;28;20033;-75
2023/03/09 10:10:04;;;;;;;5.40;1.20;;;;;;;;;;5031619;28;20036;-75
2023/03/09 10:12:30;;;;;;;6.43;1.35;;;;;;;;;;5033339;28;20966;-75
2023/03/09 10:14:59;;;;;;;8.30;1.42;;;;;;;;;;5035433;28;20064;-75
2023/03/09 10:17:33;;;;;;;7.55;1.58;;;;;;;;;;5038793;28;20030;-75
2023/03/09 10:20:02;;;;;;;6.30;1.48;;;;;;;;;;5023320;28;20025;-75
2023/03/09 10:22:28;;;;;;;5.50;1.17;;;;;;;;;;5030530;28;20060;-75
2023/03/09 10:24:55;;;;;;;5.40;1.52;;;;;;;;;;5027608;28;20029;-74
2023/03/09 10:27:27;;;;;;;7.45;1.33;;;;;;;;;;5025358;28;20033;-75
2023/03/09 10:29:53;;;;;;;10.30;3.03;;;;;;;;;;5025020;28;20029;-75
2023/03/09 10:32:27;;;;;;;6.50;1.30;;;;;;;;;;5033762;28;20626;-75
2023/03/09 10:34:55;;;;;;;8.85;1.20;;;;;;;;;;5030647;28;20032;-75
2023/03/09 10:37:23;;;;;;;5.80;1.42;;;;;;;;;;5031505;28;20739;-74
2023/03/09 10:39:49;;;;;;;5.95;1.17;;;;;;;;;;5029782;28;20029;-74
2023/03/09 10:42:26;;;;;;;6.28;0.93;;;;;;;;;;5032922;28;20030;-75
2023/03/09 10:45:12;;;;;;;6.32;0.75;;;;;;;;;;5031324;28;20482;-75
2023/03/09 10:47:54;;;;;;;2.10;0.40;;;;;;;;;;5019074;28;20481;-75
2023/03/09 10:50:21;;;;;;;2.75;0.63;;;;;;;;;;5035354;28;20466;-75
2023/03/09 10:52:47;;;;;;;2.25;0.47;;;;;;;;;;5029300;28;20029;-74
2023/03/09 10:55:46;;;;;;;6.20;0.60;;;;;;;;;;5032523;28;20045;-75
2023/03/09 10:58:17;;;;;;;3.28;0.57;;;;;;;;;;4988108;28;20037;-75
2023/03/09 11:01:03;;;;;;;4.28;0.65;;;;;;;;;;5019929;28;20030;-74
2023/03/09 11:03:34;;;;;;;3.03;0.50;;;;;;;;;;5028821;28;20032;-75
2023/03/09 11:06:09;;;;;;;2.38;0.47;;;;;;;;;;5018805;28;20065;-75
2023/03/09 11:08:35;;;;;;;2.15;0.40;;;;;;;;;;5025477;28;20471;-75
2023/03/09 11:11:06;;;;;;;1.65;0.30;;;;;;;;;;5019319;28;20108;-75
2023/03/09 11:13:32;;;;;;;3.10;0.40;;;;;;;;;;5034585;28;20140;-75
2023/03/09 11:16:06;;;;;;;2.80;0.40;;;;;;;;;;5029483;28;20045;-75
2023/03/09 11:18:32;;;;;;;3.47;0.40;;;;;;;;;;5027616;28;20033;-75
2023/03/09 11:20:58;;;;;;;2.45;0.35;;;;;;;;;;5028586;28;20050;-75
2023/03/09 11:23:33;;;;;;;2.53;0.38;;;;;;;;;;5030745;28;20088;-74
2023/03/09 11:26:14;;;;;;;1.58;0.35;;;;;;;;;;5028924;28;20038;-75
2023/03/09 11:28:58;;;;;;;1.80;0.25;;;;;;;;;;5026428;28;20591;-75
2023/03/09 11:31:25;;;;;;;2.28;0.40;;;;;;;;;;5026869;28;20055;-75
2023/03/09 11:33:54;;;;;;;2.78;0.40;;;;;;;;;;5037706;28;20036;-74
2023/03/09 11:36:23;;;;;;;2.95;0.32;;;;;;;;;;5022726;28;20044;-74
2023/03/09 11:38:49;;;;;;;1.40;0.32;;;;;;;;;;5034014;28;20037;-75
2023/03/09 11:41:27;;;;;;;1.70;0.22;;;;;;;;;;5027489;28;20042;-75
2023/03/09 11:43:55;;;;;;;3.47;0.30;;;;;;;;;;5028709;28;20034;-75
2023/03/09 11:46:22;;;;;;;0.47;0.10;;;;;;;;;;5024257;28;20971;-75
2023/03/09 11:48:53;;;;;;;2.67;0.50;;;;;;;;;;5027934;28;20033;-75
2023/03/09 11:51:28;;;;;;;2.78;0.40;;;;;;;;;;5022234;28;20411;-75
2023/03/09 11:53:54;;;;;;;2.08;0.40;;;;;;;;;;5024599;28;20039;-74
2023/03/09 11:56:20;;;;;;;2.05;0.40;;;;;;;;;;5027775;28;20116;-75
2023/03/09 11:58:49;;;;;;;2.45;0.50;;;;;;;;;;5028474;28;20075;-74
2023/03/09 12:01:19;;;;;;;1.38;0.38;;;;;;;;;;5031127;28;20037;-75
2023/03/09 12:03:49;;;;;;;2.97;0.40;;;;;;;;;;5027798;28;20902;-75
2023/03/09 12:06:28;;;;;;;2.10;0.40;;;;;;;;;;5027014;28;20037;-75
2023/03/09 12:08:56;;;;;;;4.53;0.40;;;;;;;;;;5022374;28;20068;-75
2023/03/09 12:11:24;;;;;;;3.10;0.40;;;;;;;;;;5031393;28;20030;-75
2023/03/09 12:13:53;;;;;;;5.95;0.40;;;;;;;;;;5029282;28;20655;-75
2023/03/09 12:16:24;;;;;;;1.90;0.30;;;;;;;;;;5031369;28;20491;-74
2023/03/09 12:18:58;;;;;;;1.83;0.47;;;;;;;;;;5024734;28;20387;-75
2023/03/09 12:21:29;;;;;;;2.63;0.77;;;;;;;;;;5025206;28;20081;-75
2023/03/09 12:23:55;;;;;;;3.37;0.33;;;;;;;;;;5021060;28;20041;-75
2023/03/09 12:26:23;;;;;;;1.90;0.30;;;;;;;;;;5023741;28;20041;-75
2023/03/09 12:29:01;;;;;;;1.67;0.30;;;;;;;;;;5024763;28;20483;-75
2023/03/09 12:31:31;;;;;;;2.85;0.30;;;;;;;;;;5027344;28;20049;-75
2023/03/09 12:33:57;;;;;;;2.47;0.65;;;;;;;;;;5024118;28;20043;-74
2023/03/09 12:36:25;;;;;;;1.25;0.20;;;;;;;;;;5031803;28;20041;-74
2023/03/09 12:39:10;;;;;;;1.23;0.20;;;;;;;;;;5030569;28;20037;-75
2023/03/09 12:41:54;;;;;;;1.30;0.20;;;;;;;;;;5029479;28;20103;-74
2023/03/09 12:44:39;;;;;;;2.63;0.30;;;;;;;;;;5028242;28;20036;-75
2023/03/09 12:47:20;;;;;;;2.65;0.35;;;;;;;;;;5027829;28;20509;-75
2023/03/09 12:49:48;;;;;;;4.50;0.27;;;;;;;;;;5025685;28;20025;-75
2023/03/09 12:52:20;;;;;;;2.05;0.20;;;;;;;;;;5030997;28;20571;-75
2023/03/09 12:54:54;;;;;;;0.80;0.20;;;;;;;;;;5017741;28;20041;-75
2023/03/09 12:57:20;;;;;;;2.28;0.20;;;;;;;;;;5029529;28;20041;-75
2023/03/09 12:59:48;;;;;;;7.10;0.63;;;;;;;;;;5028107;28;20021;-74
2023/03/09 13:02:23;;;;;;;2.13;0.30;;;;;;;;;;5025947;28;20033;-75
2023/03/09 13:05:08;;;;;;;2.00;0.20;;;;;;;;;;5026706;28;20033;-75
2023/03/09 13:07:34;;;;;;;1.85;0.28;;;;;;;;;;5026188;28;20056;-75
2023/03/09 13:10:00;;;;;;;2.30;0.20;;;;;;;;;;5030058;28;20037;-76
2023/03/09 13:12:31;;;;;;;1.38;0.10;;;;;;;;;;5027355;28;20394;-75
2023/03/09 13:14:56;;;;;;;2.97;0.40;;;;;;;;;;5017721;28;20132;-75
2023/03/09 13:17:22;;;;;;;2.60;0.20;;;;;;;;;;5030988;28;20133;-75
2023/03/09 13:19:50;;;;;;;0.82;0.20;;;;;;;;;;5021273;28;20052;-76
2023/03/09 13:22:20;;;;;;;3.15;0.30;;;;;;;;;;5027129;28;20045;-75
2023/03/09 13:24:47;;;;;;;3.25;0.30;;;;;;;;;;5029414;28;20086;-75
2023/03/09 13:27:24;;;;;;;2.67;0.50;;;;;;;;;;5027178;28;20029;-75
2023/03/09 13:29:55;;;;;;;1.48;0.35;;;;;;;;;;5026256;28;20111;-76
2023/03/09 13:32:21;;;;;;;2.15;0.43;;;;;;;;;;5028137;28;20133;-75
2023/03/09 13:34:48;;;;;;;1.30;0.40;;;;;;;;;;5026136;28;20112;-75
2023/03/09 13:37:16;;;;;;;1.40;0.30;;;;;;;;;;5029736;28;20029;-75
2023/03/09 13:39:56;;;;;;;1.83;0.40;;;;;;;;;;5028283;28;20030;-75
2023/03/09 13:42:22;;;;;;;0.73;0.28;;;;;;;;;;5026691;28;20025;-75
2023/03/09 13:44:48;;;;;;;1.27;0.30;;;;;;;;;;5024245;28;20033;-75
2023/03/09 13:47:34;;;;;;;2.40;0.20;;;;;;;;;;5028462;28;20049;-75
2023/03/09 13:50:01;;;;;;;1.85;0.28;;;;;;;;;;5027046;28;20117;-75
2023/03/09 13:52:28;;;;;;;2.28;0.80;;;;;;;;;;5031480;28;20041;-75
2023/03/09 13:54:55;;;;;;;7.25;0.90;;;;;;;;;;5026010;28;20034;-75
2023/03/09 13:57:39;;;;;;;6.35;1.00;;;;;;;;;;5033304;28;20655;-75
2023/03/09 14:00:11;;;;;;;4.10;0.50;;;;;;;;;;5027334;28;20037;-75
2023/03/09 14:02:37;;;;;;;3.88;0.43;;;;;;;;;;5039467;28;20086;-75
2023/03/09 14:05:03;;;;;;;0.95;0.20;;;;;;;;;;5036761;28;20057;-75
2023/03/09 14:07:36;;;;;;;1.40;0.30;;;;;;;;;;5025039;28;20037;-75
2023/03/09 14:10:05;;;;;;;1.30;0.30;;;;;;;;;;5025682;28;20033;-75
2023/03/09 14:12:33;;;;;;;1.40;0.40;;;;;;;;;;5029031;28;20124;-75
2023/03/09 14:15:00;;;;;;;3.70;0.40;;;;;;;;;;5038258;28;20029;-75
2023/03/09 14:17:26;;;;;;;1.48;0.30;;;;;;;;;;5028344;28;20144;-75
2023/03/09 14:19:53;;;;;;;7.00;0.60;;;;;;;;;;5028716;28;20026;-75
2023/03/09 14:22:20;;;;;;;2.10;0.40;;;;;;;;;;5025835;28;20054;-75
2023/03/09 14:24:46;;;;;;;3.13;0.95;;;;;;;;;;5032658;28;20116;-76
2023/03/09 14:27:25;;;;;;;4.70;0.52;;;;;;;;;;5028470;28;20940;-75
2023/03/09 14:29:53;;;;;;;4.22;0.60;;;;;;;;;;5032268;28;20050;-75
2023/03/09 14:32:25;;;;;;;3.08;0.90;;;;;;;;;;5026874;28;21308;-75
2023/03/09 14:34:53;;;;;;;3.10;0.75;;;;;;;;;;5028398;28;20028;-76
2023/03/09 14:37:21;;;;;;;3.97;0.80;;;;;;;;;;5033628;28;20072;-74
2023/03/09 14:39:47;;;;;;;4.43;0.90;;;;;;;;;;5029554;28;20473;-75
2023/03/09 14:42:27;;;;;;;3.28;0.77;;;;;;;;;;5028010;28;20503;-75
2023/03/09 14:45:08;;;;;;;5.88;0.75;;;;;;;;;;5031088;28;20768;-75